17:17
Airports
Links
Donate
Help keep this website running!
PayPal
Bitcoin
METAR
NSTU 211550Z 12014KT 1/2SM +SHRA VV008 26/26 A2977 RMK SLP081 T02620255
Current Weather Conditions at NSTU
LIFR 15:50:00 21-11-17
Altimeter:29.77 hg
Temp:26.2°c 79°f
Dew point:25.5°c 77°f
Wind:14 knots, 16.1 mph, 7 m/s, from 120°
Visibility:0.5 statute miles
0(OVX)
Past METAR reports
VFR 14:51:00 21-11-17
Altimeter:29.76 hg
Temp:27.0°c 81°f
Dew point:26.3°c 79°f
Wind:3 knots, 3.5 mph, 2 m/s,
Variable direction
Visibility:10.0 statute miles
1800(FEW) A few
NSTU 211451Z VRB03KT 10SM FEW018 27/26 A2976 RMK SLP078 60001 8/100 T02700263 56010
VFR 13:50:00 21-11-17
Altimeter:29.76 hg
Temp:27.2°c 81°f
Dew point:26.2°c 79°f
Wind:7 knots, 8.1 mph, 4 m/s, from 120°
Visibility:10.0 statute miles
10000(BKN) Broken
4000(BKN) Broken
1800(SCT) Scattered
NSTU 211350Z 12007KT 10SM SCT018 BKN040 BKN100 27/26 A2976 RMK SLP078 T02720262
VFR 12:52:00 21-11-17
Altimeter:29.77 hg
Temp:26.7°c 79°f
Dew point:25.9°c 77°f
Wind:10 knots, 11.5 mph, 5 m/s, from 130°
Visibility:10.0 statute miles
10000(BKN) Broken
3800(BKN) Broken
1700(SCT) Scattered
NSTU 211252Z 13010KT 10SM SCT017 BKN038 BKN100 27/26 A2977 RMK SHRAE12 SLP083 T02670259
VFR 11:52:00 21-11-17
Altimeter:29.79 hg
Temp:26.4°c 79°f
Dew point:26.0°c 79°f
Wind:5 knots, 5.8 mph, 3 m/s,
Variable direction
Visibility:10.0 statute miles
10000(BKN) Broken
4000(BKN) Broken
1800(SCT) Scattered
NSTU 211152Z VRB05KT 10SM -SHRA SCT018 BKN040 BKN100 26/26 A2979 RMK SHRAB49 SLP088 60047 70064 8/420 T02640260 10284 20260 56010
TAF
NSTU 211120Z 2112/2212 08011KT P6SM VCSH FEW020 SCT040 BKN100
Forecast at NSTU
12:00 21-11-17 to 12:00 22-11-17
VCSH
Wind:11 Knots from 80°
Visibility:6.21 statute miles
2000FEW A few
4000SCT Scattered
10000BKN Broken